createdAt,value
2019-02-16T00:03:31.141Z,4.09
2019-02-16T00:08:33.032Z,4.03
2019-02-16T00:13:35.821Z,4.07
2019-02-16T00:18:37.736Z,3.99
2019-02-16T00:23:39.619Z,4.03
2019-02-16T00:28:41.562Z,3.87
2019-02-16T00:33:43.496Z,3.77
2019-02-16T00:38:45.414Z,3.83
2019-02-16T00:43:47.568Z,3.85
2019-02-16T00:48:49.448Z,3.90
2019-02-16T00:53:51.337Z,3.72
2019-02-16T00:58:53.572Z,3.68
2019-02-16T01:03:55.452Z,3.60
2019-02-16T01:08:57.350Z,3.63
2019-02-16T01:13:59.442Z,3.44
2019-02-16T01:19:02.429Z,3.41
2019-02-16T01:24:04.328Z,3.47
2019-02-16T01:29:07.381Z,3.28
2019-02-16T01:34:09.301Z,3.27
2019-02-16T01:39:11.212Z,3.34
2019-02-16T01:44:13.223Z,3.48
2019-02-16T01:49:15.123Z,3.38
2019-02-16T01:54:17.029Z,3.00
2019-02-16T01:59:19.036Z,3.14
2019-02-16T02:04:21.518Z,3.05
2019-02-16T02:09:24.015Z,3.05
2019-02-16T02:14:26.039Z,3.01
2019-02-16T02:19:28.029Z,2.87
2019-02-16T02:24:29.944Z,2.88
2019-02-16T02:29:31.915Z,3.05
2019-02-16T02:34:33.794Z,3.05
2019-02-16T02:39:37.030Z,3.07
2019-02-16T02:44:38.932Z,3.01
2019-02-16T02:49:40.917Z,2.96
2019-02-16T02:54:42.838Z,2.92
2019-02-16T02:59:44.777Z,2.72
2019-02-16T03:04:46.660Z,2.79
2019-02-16T03:09:48.590Z,2.85
2019-02-16T03:14:50.556Z,2.85
2019-02-16T03:19:52.447Z,2.81
2019-02-16T03:24:54.365Z,2.57
2019-02-16T03:30:22.423Z,2.49
2019-02-16T03:36:06.160Z,2.49
2019-02-16T03:41:08.130Z,2.46
2019-02-16T03:46:10.065Z,2.46
2019-02-16T03:51:12.046Z,2.28
2019-02-16T03:56:13.951Z,2.35
2019-02-16T04:01:16.180Z,2.27
2019-02-16T04:06:18.055Z,2.21
2019-02-16T04:11:20.249Z,2.25
2019-02-16T04:16:22.337Z,2.24
2019-02-16T04:21:24.276Z,2.26
2019-02-16T04:26:27.423Z,2.44
2019-02-16T04:31:29.364Z,2.48
2019-02-16T04:36:31.627Z,2.24
2019-02-16T04:41:33.603Z,2.16
2019-02-16T04:46:35.509Z,1.94
2019-02-16T04:51:37.397Z,1.91
2019-02-16T04:56:39.428Z,2.11
2019-02-16T05:01:41.427Z,2.20
2019-02-16T05:06:43.355Z,2.19
2019-02-16T05:11:45.299Z,2.21
2019-02-16T05:16:47.289Z,2.17
2019-02-16T05:21:49.187Z,2.08
2019-02-16T05:26:51.116Z,1.87
2019-02-16T05:31:53.542Z,1.71
2019-02-16T05:36:55.673Z,1.76
2019-02-16T05:41:57.617Z,1.83
2019-02-16T05:46:59.504Z,1.68
2019-02-16T05:52:01.489Z,1.73
2019-02-16T05:57:03.446Z,1.98
2019-02-16T06:02:05.402Z,1.98
2019-02-16T06:07:07.318Z,2.14
2019-02-16T06:12:09.869Z,2.14
2019-02-16T06:17:11.788Z,2.10
2019-02-16T06:22:13.795Z,2.10
2019-02-16T06:27:19.562Z,2.05
2019-02-16T06:32:21.636Z,1.99
2019-02-16T06:37:24.374Z,2.09
2019-02-16T06:42:29.411Z,2.17
2019-02-16T06:47:31.311Z,2.12
2019-02-16T06:52:33.253Z,2.27
2019-02-16T06:57:35.208Z,2.31
2019-02-16T07:02:37.146Z,2.56
2019-02-16T07:07:39.043Z,2.56
2019-02-16T07:12:41.942Z,2.68
2019-02-16T07:17:48.575Z,2.70
2019-02-16T07:22:50.569Z,2.74
2019-02-16T07:27:52.481Z,2.76
2019-02-16T07:32:54.430Z,2.92
2019-02-16T07:37:56.456Z,3.16
2019-02-16T07:42:59.076Z,3.22
2019-02-16T07:48:15.101Z,3.43
2019-02-16T07:53:31.356Z,3.74
2019-02-16T07:58:56.621Z,4.15
2019-02-16T08:04:06.204Z,4.46
2019-02-16T08:09:27.786Z,4.57
2019-02-16T08:14:58.347Z,4.72
2019-02-16T08:20:25.532Z,4.64
2019-02-16T08:25:38.572Z,4.52
2019-02-16T08:31:02.888Z,4.69
2019-02-16T08:36:36.125Z,4.90
2019-02-16T08:41:56.287Z,5.12
2019-02-16T08:47:04.233Z,5.50
2019-02-16T08:52:13.464Z,5.91
2019-02-16T08:57:35.813Z,6.26
2019-02-16T09:03:00.127Z,6.42
2019-02-16T09:08:10.675Z,6.79
2019-02-16T09:13:19.759Z,7.00
2019-02-16T09:18:49.742Z,7.29
2019-02-16T09:24:13.974Z,7.55
2019-02-16T09:29:27.200Z,7.70
2019-02-16T09:34:38.711Z,8.08
2019-02-16T09:39:50.627Z,8.41
2019-02-16T09:45:12.254Z,8.75
2019-02-16T09:50:20.391Z,8.99
2019-02-16T09:55:44.272Z,9.20
2019-02-16T10:00:52.190Z,9.49
2019-02-16T10:06:17.087Z,9.67
2019-02-16T10:11:32.934Z,10.01
2019-02-16T10:16:55.768Z,10.24
2019-02-16T10:22:07.638Z,10.44
2019-02-16T10:27:28.700Z,10.58
2019-02-16T10:32:49.264Z,10.74
2019-02-16T10:38:20.302Z,10.87
2019-02-16T10:43:45.119Z,10.91
2019-02-16T10:48:53.098Z,11.15
2019-02-16T10:54:02.100Z,11.33
2019-02-16T10:59:23.702Z,11.57
2019-02-16T11:04:49.447Z,11.92
2019-02-16T11:10:20.250Z,12.12
2019-02-16T11:15:49.601Z,12.11
2019-02-16T11:21:10.121Z,12.62
2019-02-16T11:26:34.523Z,12.89
2019-02-16T11:32:02.119Z,12.96
2019-02-16T11:37:18.406Z,13.27
2019-02-16T11:42:38.430Z,13.72
2019-02-16T11:47:48.577Z,13.84
2019-02-16T11:53:12.804Z,14.29
2019-02-16T11:58:27.024Z,14.56
2019-02-16T12:03:40.683Z,14.87
2019-02-16T12:08:55.874Z,15.17
2019-02-16T12:19:40.376Z,15.66
2019-02-16T12:25:05.670Z,15.79
2019-02-16T12:30:23.370Z,16.11
2019-02-16T12:35:41.600Z,16.20
2019-02-16T12:40:51.616Z,16.37
2019-02-16T12:46:07.181Z,16.55
2019-02-16T12:51:23.208Z,16.49
2019-02-16T12:56:33.702Z,16.81
2019-02-16T13:01:41.769Z,16.95
2019-02-16T13:06:57.067Z,17.20
2019-02-16T13:12:08.938Z,17.37
2019-02-16T13:17:28.869Z,17.53
2019-02-16T13:22:36.380Z,17.92
2019-02-16T13:28:00.779Z,18.05
2019-02-16T13:33:39.520Z,17.60
2019-02-16T13:39:03.802Z,17.46
2019-02-16T13:44:25.364Z,17.82
2019-02-16T13:49:52.695Z,17.71
2019-02-16T13:55:07.628Z,18.55
2019-02-16T14:00:41.532Z,18.25
2019-02-16T14:05:59.433Z,18.64
2019-02-16T14:11:17.870Z,18.94
2019-02-16T14:16:30.095Z,19.51
2019-02-16T14:21:31.985Z,20.01
2019-02-16T14:26:33.998Z,19.83
2019-02-16T14:31:35.995Z,19.78
2019-02-16T14:36:38.043Z,20.26
2019-02-16T14:41:40.004Z,21.41
2019-02-16T14:46:41.902Z,22.27
2019-02-16T14:51:43.841Z,22.29
2019-02-16T14:56:45.802Z,22.59
2019-02-16T15:01:47.830Z,22.97
2019-02-16T15:06:49.804Z,23.81
2019-02-16T15:11:51.819Z,25.25
2019-02-16T15:16:53.708Z,26.06
2019-02-16T15:21:55.944Z,25.87
2019-02-16T15:26:57.886Z,25.85
2019-02-16T15:31:59.785Z,26.39
2019-02-16T15:37:01.714Z,25.34
2019-02-16T15:42:03.625Z,24.37
2019-02-16T15:47:05.643Z,24.30
2019-02-16T15:52:07.745Z,23.71
2019-02-16T15:57:09.660Z,22.68
2019-02-16T16:02:11.698Z,21.48
2019-02-16T16:07:16.191Z,18.94
2019-02-16T16:12:37.745Z,17.38
2019-02-16T16:17:50.760Z,16.31
2019-02-16T16:23:00.289Z,15.55
2019-02-16T16:28:20.630Z,14.77
2019-02-16T16:33:42.305Z,14.56
2019-02-16T16:39:07.725Z,14.09
2019-02-16T16:44:25.604Z,13.77
2019-02-16T16:49:46.538Z,13.54
2019-02-16T16:55:08.153Z,13.48
2019-02-16T17:00:28.980Z,13.21
2019-02-16T17:05:52.675Z,12.97
2019-02-16T17:11:17.141Z,12.75
2019-02-16T17:16:38.439Z,12.71
2019-02-16T17:21:49.507Z,12.64
2019-02-16T17:27:22.366Z,12.47
2019-02-16T17:32:50.136Z,12.26
2019-02-16T17:38:05.617Z,11.95
2019-02-16T17:43:32.569Z,11.82
2019-02-16T17:48:41.222Z,11.49
2019-02-16T17:53:55.641Z,11.47
2019-02-16T17:59:03.275Z,11.47
2019-02-16T18:04:16.754Z,11.46
2019-02-16T18:09:37.100Z,11.32
2019-02-16T18:14:51.168Z,11.14
2019-02-16T18:20:04.355Z,10.87
2019-02-16T18:25:26.384Z,10.87
2019-02-16T18:30:37.965Z,10.82
2019-02-16T18:35:49.710Z,10.69
2019-02-16T18:41:08.614Z,10.48
2019-02-16T18:46:20.255Z,10.43
2019-02-16T18:51:54.013Z,10.47
2019-02-16T18:57:14.409Z,10.40
2019-02-16T19:02:35.251Z,10.35
2019-02-16T19:07:50.624Z,9.91
2019-02-16T19:13:04.910Z,9.57
2019-02-16T19:18:13.288Z,9.19
2019-02-16T19:23:28.808Z,8.83
2019-02-16T19:28:46.350Z,8.96
2019-02-16T19:34:11.912Z,8.84
2019-02-16T19:39:21.731Z,8.79
2019-02-16T19:44:41.985Z,8.58
2019-02-16T19:50:06.522Z,8.77
2019-02-16T19:55:19.376Z,8.75
2019-02-16T20:00:39.780Z,8.59
2019-02-16T20:05:51.524Z,8.42
2019-02-16T20:11:18.348Z,8.27
2019-02-16T20:16:29.327Z,8.33
2019-02-16T20:21:45.184Z,8.22
2019-02-16T20:27:12.695Z,8.22
2019-02-16T20:32:42.092Z,8.23
2019-02-16T20:37:54.003Z,8.08
2019-02-16T20:43:01.144Z,8.10
2019-02-16T20:48:16.334Z,8.06
2019-02-16T20:53:34.246Z,7.88
2019-02-16T20:58:42.226Z,7.92
2019-02-16T21:04:06.490Z,7.69
2019-02-16T21:09:21.023Z,7.73
2019-02-16T21:14:48.949Z,7.73
2019-02-16T21:19:58.721Z,7.77
2019-02-16T21:25:20.371Z,7.73
2019-02-16T21:30:40.922Z,7.70
2019-02-16T21:35:52.191Z,7.77
2019-02-16T21:41:02.091Z,7.70
2019-02-16T21:46:30.120Z,7.56
2019-02-16T21:51:45.315Z,7.43
2019-02-16T21:56:54.590Z,7.17
2019-02-16T22:02:22.245Z,7.01
2019-02-16T22:07:47.684Z,6.99
2019-02-16T22:13:05.032Z,7.18
2019-02-16T22:18:07.172Z,7.15
2019-02-16T22:23:09.067Z,7.06
2019-02-16T22:28:18.311Z,6.94
2019-02-16T22:33:15.016Z,6.81
2019-02-16T22:38:16.945Z,6.70
2019-02-16T22:43:18.856Z,6.52
2019-02-16T22:48:22.561Z,6.40
2019-02-16T22:53:25.549Z,6.39
2019-02-16T22:58:29.090Z,6.18
2019-02-16T23:03:31.463Z,6.12
2019-02-16T23:08:33.437Z,6.06
2019-02-16T23:13:36.768Z,6.01
2019-02-16T23:18:38.649Z,5.83
2019-02-16T23:23:40.743Z,5.59
2019-02-16T23:28:42.774Z,5.73
2019-02-16T23:33:44.706Z,5.57
2019-02-16T23:38:47.013Z,5.61
2019-02-16T23:43:49.024Z,5.59
2019-02-16T23:48:50.945Z,5.63
2019-02-16T23:53:53.066Z,5.76
2019-02-16T23:58:55.073Z,5.69
